Aérodrome :
LOGIN :

S'inscrire | Disclaimer

   EN    FR    IT 

 










Légende :    VFR   VFR Marginal   IFR   IFR Intensif   IFR Très Intensif
Visi : 
Plafond : 
>= 8 km
>= 3000ft
5 à 8 km
1000 à 3000 ft
1500m à 5 km
500 à 1000 ft
800 à 1500m
200 à 500 ft
< 800m
< 200 ft
Symboles :   Orages  Brouillard  Fortes neiges  Fortes précipitations  Vent > 20 kt
SIGMETs :   Divers  Orages  Givrage  Turbulence  Onde Orograph.  Cendres Volcan.







- Altitude de l'aérodrome : 184 ft
- Code IATA : BRU


EBBR - Bruxelles

DERNIER METAR :
  • 242020Z 36005KT 330V100 9999 FEW043 15/09 Q1024 NOSIG

METARs EXPIRÉS :
  • 241950Z 36006KT 9999 FEW031 15/09 Q1024 NOSIG
  • 241920Z 36006KT 9999 FEW031 16/11 Q1024 NOSIG
  • 241850Z 36007KT 9999 FEW031 17/11 Q1023 NOSIG
  • 241820Z 36008KT 9999 FEW032 18/11 Q1023 NOSIG
  • 241750Z 36009KT 9999 FEW032 BKN043 18/11 Q1023 NOSIG

TAF TAF EBBR
Valide du 24 à 18h jusqu'au 26 à 00h UTC


241700Z 2418/2524 01006KT 9999 BKN045
TEMPO 2422/2502 BKN014
TEMPO 2506/2509 BKN014
Pas de NOTAMs connus pour ce terrain.



MET'MAP, la Météo Aéronautique d'un coup d'oeil ! - Copyright ORBIFLY Décembre 2007 - Disclaimer

ORBIFLY MET'MAP TEAM :

Programmation & Développement : Alexandra Zaïnal
Conception & Développement : Baudouin d'Aumeries
Co-Programmation & Développement : Marc-Olivier Méhu
Soutien technique & logistique : Manuel Goepfert

Contact : metmap@orbifly.com




SOURCES & CREDITS :

   NOAA